createdAt,value
2022-10-14T00:04:40.770Z,17.47
2022-10-14T00:10:34.002Z,21.47
2022-10-14T00:16:29.606Z,19.40
2022-10-14T00:22:25.525Z,16.53
2022-10-14T00:28:19.222Z,15.70
2022-10-14T00:34:13.434Z,19.00
2022-10-14T00:40:09.428Z,16.73
2022-10-14T00:46:02.671Z,16.97
2022-10-14T00:51:59.866Z,18.17
2022-10-14T00:57:54.561Z,19.10
2022-10-14T01:03:47.424Z,18.60
2022-10-14T01:09:44.854Z,20.00
2022-10-14T01:15:47.845Z,21.03
2022-10-14T01:21:46.660Z,20.60
2022-10-14T01:28:18.922Z,23.97
2022-10-14T01:34:20.536Z,23.53
2022-10-14T01:40:23.846Z,23.97
2022-10-14T01:46:19.701Z,22.40
2022-10-14T01:52:20.552Z,21.00
2022-10-14T01:58:15.807Z,23.60
2022-10-14T02:04:15.812Z,24.33
2022-10-14T02:10:18.189Z,22.43
2022-10-14T02:16:18.191Z,22.33
2022-10-14T02:22:18.754Z,19.63
2022-10-14T02:28:19.448Z,20.90
2022-10-14T02:34:19.778Z,20.63
2022-10-14T02:40:18.323Z,26.30
2022-10-14T02:46:13.000Z,27.30
2022-10-14T02:52:06.481Z,25.90
2022-10-14T02:57:59.387Z,26.70
2022-10-14T03:03:54.612Z,31.03
2022-10-14T03:09:49.689Z,29.00
2022-10-14T03:15:43.868Z,28.40
2022-10-14T03:21:39.645Z,29.83
2022-10-14T03:27:38.814Z,31.53
2022-10-14T03:33:37.287Z,31.27
2022-10-14T03:39:36.270Z,22.47
2022-10-14T03:45:31.595Z,33.40
2022-10-14T03:51:25.333Z,25.77
2022-10-14T03:57:28.050Z,31.00
2022-10-14T04:03:23.541Z,29.77
2022-10-14T04:09:16.973Z,27.97
2022-10-14T04:15:11.864Z,29.33
2022-10-14T04:21:24.427Z,28.47
2022-10-14T04:27:19.987Z,30.83
2022-10-14T04:33:32.404Z,28.53
2022-10-14T04:39:34.881Z,35.93
2022-10-14T04:45:28.487Z,37.90
2022-10-14T04:51:28.184Z,30.20
2022-10-14T04:57:36.918Z,31.00
2022-10-14T05:03:30.279Z,26.83
2022-10-14T05:09:26.784Z,31.83
2022-10-14T05:15:20.030Z,28.57
2022-10-14T05:21:32.147Z,31.03
2022-10-14T05:27:36.774Z,28.40
2022-10-14T05:33:30.960Z,30.27
2022-10-14T05:39:24.526Z,34.00
2022-10-14T05:45:19.417Z,30.50
2022-10-14T05:51:21.033Z,34.47
2022-10-14T05:57:18.190Z,31.57
2022-10-14T06:03:13.947Z,32.43
2022-10-14T06:09:11.163Z,33.27
2022-10-14T06:15:05.519Z,33.80
2022-10-14T06:21:00.031Z,38.07
2022-10-14T06:26:53.277Z,29.07
2022-10-14T06:32:53.710Z,31.60
2022-10-14T06:38:48.356Z,33.00
2022-10-14T06:44:41.211Z,33.50
2022-10-14T06:50:34.204Z,31.00
2022-10-14T06:56:28.966Z,30.77
2022-10-14T07:02:22.355Z,30.13
2022-10-14T07:08:15.942Z,34.43
2022-10-14T07:14:10.893Z,35.27
2022-10-14T07:20:04.575Z,30.50
2022-10-14T07:25:58.213Z,33.07
2022-10-14T07:31:52.867Z,32.07
2022-10-14T07:37:46.311Z,31.03
2022-10-14T07:43:39.634Z,30.20
2022-10-14T07:49:34.247Z,25.27
2022-10-14T07:55:27.527Z,34.30
2022-10-14T08:01:21.182Z,32.70
2022-10-14T08:07:16.247Z,33.67
2022-10-14T08:13:09.507Z,32.50
2022-10-14T08:19:06.775Z,30.43
2022-10-14T08:25:04.471Z,35.50
2022-10-14T08:30:58.246Z,36.20
2022-10-14T08:36:51.817Z,35.93
2022-10-14T08:42:54.796Z,33.83
2022-10-14T08:48:50.409Z,35.23
2022-10-14T08:54:47.975Z,29.03
2022-10-14T09:00:46.422Z,34.97
2022-10-14T09:06:42.677Z,33.67
2022-10-14T09:12:37.225Z,29.60
2022-10-14T09:18:36.259Z,31.20
2022-10-14T09:24:33.530Z,30.20
2022-10-14T09:30:27.275Z,30.30
2022-10-14T09:36:22.701Z,28.10
2022-10-14T09:42:20.066Z,26.30
2022-10-14T09:48:17.288Z,25.80
2022-10-14T09:54:24.258Z,28.13
2022-10-14T10:00:27.154Z,25.60
2022-10-14T10:06:23.328Z,25.53
2022-10-14T10:12:26.168Z,28.00
2022-10-14T10:18:20.730Z,23.40
2022-10-14T10:24:20.888Z,25.53
2022-10-14T10:30:24.775Z,24.23
2022-10-14T10:36:24.300Z,24.50
2022-10-14T10:42:27.426Z,22.80
2022-10-14T10:48:29.294Z,21.20
2022-10-14T10:54:33.419Z,25.40
2022-10-14T11:00:27.452Z,23.50
2022-10-14T11:06:48.165Z,22.63
2022-10-14T11:12:53.032Z,20.30
2022-10-14T11:18:50.715Z,21.70
2022-10-14T11:24:54.948Z,23.43
2022-10-14T11:30:52.921Z,25.70
2022-10-14T11:36:55.728Z,19.97
2022-10-14T11:43:02.864Z,24.17
2022-10-14T11:48:59.632Z,20.70
2022-10-14T11:54:59.338Z,20.60
2022-10-14T12:00:58.862Z,19.40
2022-10-14T12:07:01.603Z,20.00
2022-10-14T12:12:57.086Z,19.30
2022-10-14T12:18:56.628Z,16.53
2022-10-14T12:24:54.542Z,15.37
2022-10-14T12:30:48.324Z,17.73
2022-10-14T12:36:44.065Z,20.23
2022-10-14T12:42:53.929Z,17.23
2022-10-14T12:48:51.935Z,14.80
2022-10-14T13:00:56.358Z,9.43
2022-10-14T13:07:39.632Z,9.47
2022-10-14T13:14:02.407Z,10.80
2022-10-14T13:19:55.325Z,12.30
2022-10-14T13:25:52.039Z,12.30
2022-10-14T13:32:01.167Z,10.10
2022-10-14T13:38:01.754Z,10.07
2022-10-14T13:43:57.158Z,10.23
2022-10-14T13:49:52.690Z,11.70
2022-10-14T13:55:53.152Z,11.03
2022-10-14T14:01:49.504Z,11.30
2022-10-14T14:08:22.185Z,10.23
2022-10-14T14:14:01.726Z,13.30
2022-10-14T14:19:56.299Z,11.50
2022-10-14T14:26:17.894Z,11.57
2022-10-14T14:32:07.262Z,11.27
2022-10-14T14:38:01.436Z,10.40
2022-10-14T14:44:24.186Z,10.60
2022-10-14T14:50:32.117Z,14.83
2022-10-14T14:56:29.915Z,10.20
2022-10-14T15:02:25.976Z,10.60
2022-10-14T15:08:24.920Z,9.90
2022-10-14T15:14:33.244Z,9.70
2022-10-14T15:20:32.196Z,7.30
2022-10-14T15:26:35.646Z,7.90
2022-10-14T15:32:29.386Z,7.90
2022-10-14T15:44:36.051Z,8.83
2022-10-14T15:50:29.414Z,10.00
2022-10-14T15:56:27.294Z,8.07
2022-10-14T16:02:24.814Z,8.80
2022-10-14T16:08:38.657Z,8.60
2022-10-14T16:14:38.067Z,8.73
2022-10-14T16:20:31.723Z,9.90
2022-10-14T16:26:24.876Z,8.53
2022-10-14T16:32:19.504Z,8.20
2022-10-14T16:38:13.662Z,9.87
2022-10-14T16:44:07.952Z,9.60
2022-10-14T16:50:02.763Z,8.53
2022-10-14T16:55:58.337Z,61.73
2022-10-14T17:01:52.017Z,8.60
2022-10-14T17:07:46.803Z,9.30
2022-10-14T17:13:39.700Z,8.17
2022-10-14T17:19:33.201Z,9.90
2022-10-14T17:25:31.414Z,9.53
2022-10-14T17:31:25.941Z,9.17
2022-10-14T17:37:19.295Z,8.90
2022-10-14T17:43:14.221Z,9.40
2022-10-14T17:49:10.238Z,8.73
2022-10-14T17:55:03.560Z,10.70
2022-10-14T18:01:04.825Z,11.53
2022-10-14T18:06:59.326Z,8.43
2022-10-14T18:12:52.330Z,6.60
2022-10-14T18:18:47.895Z,8.10
2022-10-14T18:24:40.915Z,6.37
2022-10-14T18:30:38.168Z,6.00
2022-10-14T18:36:33.132Z,5.50
2022-10-14T18:42:27.191Z,5.07
2022-10-14T18:48:22.167Z,5.63
2022-10-14T18:54:18.973Z,5.23
2022-10-14T19:00:14.465Z,6.40
2022-10-14T19:06:09.148Z,6.20
2022-10-14T19:12:25.208Z,5.53
2022-10-14T19:18:18.809Z,4.20
2022-10-14T19:24:14.165Z,4.27
2022-10-14T19:30:10.539Z,4.30
2022-10-14T19:36:03.935Z,4.10
2022-10-14T19:41:57.564Z,5.30
2022-10-14T19:47:52.234Z,4.73
2022-10-14T19:53:45.632Z,4.20
2022-10-14T19:59:38.555Z,5.13
2022-10-14T20:05:33.214Z,5.50
2022-10-14T20:11:26.668Z,5.20
2022-10-14T20:23:20.611Z,6.33
2022-10-14T20:29:13.926Z,4.13
2022-10-14T20:35:11.485Z,4.23
2022-10-14T20:41:12.506Z,4.40
2022-10-14T20:47:06.042Z,3.70
2022-10-14T20:52:59.960Z,4.80
2022-10-14T20:58:58.380Z,5.00
2022-10-14T21:04:53.346Z,4.27
2022-10-14T21:10:46.235Z,3.80
2022-10-14T21:16:42.759Z,3.87
2022-10-14T21:22:36.059Z,4.20
2022-10-14T21:28:29.533Z,4.03
2022-10-14T21:34:25.119Z,6.73
2022-10-14T21:40:18.578Z,5.67
2022-10-14T21:46:13.575Z,5.30
2022-10-14T21:52:08.540Z,3.97
2022-10-14T21:58:01.959Z,3.83
2022-10-14T22:03:56.230Z,4.03
2022-10-14T22:09:50.881Z,3.73
2022-10-14T22:15:44.951Z,4.17
2022-10-14T22:21:40.297Z,3.90
2022-10-14T22:27:34.673Z,4.60
2022-10-14T22:33:28.023Z,5.77
2022-10-14T22:39:21.303Z,5.00
2022-10-14T22:45:15.797Z,5.17
2022-10-14T22:51:11.294Z,5.50
2022-10-14T22:57:04.700Z,5.23
2022-10-14T23:02:59.475Z,7.90
2022-10-14T23:08:52.932Z,5.00
2022-10-14T23:14:46.329Z,7.13
2022-10-14T23:20:40.961Z,7.57
2022-10-14T23:26:35.957Z,6.30
2022-10-14T23:32:29.268Z,4.90
2022-10-14T23:38:23.977Z,5.30
2022-10-14T23:44:16.920Z,5.83
2022-10-14T23:50:10.623Z,8.37
2022-10-14T23:56:06.191Z,5.30
